createdAt,value
2019-03-25T00:01:51.292Z,4.37
2019-03-25T00:04:22.781Z,4.83
2019-03-25T00:06:54.292Z,4.20
2019-03-25T00:09:25.777Z,3.87
2019-03-25T00:11:57.266Z,5.17
2019-03-25T00:14:28.715Z,4.60
2019-03-25T00:17:00.211Z,4.77
2019-03-25T00:19:31.759Z,4.67
2019-03-25T00:22:04.042Z,4.03
2019-03-25T00:24:39.093Z,4.53
2019-03-25T00:27:08.738Z,5.23
2019-03-25T00:29:40.223Z,5.20
2019-03-25T00:32:12.425Z,5.07
2019-03-25T00:34:43.861Z,4.20
2019-03-25T00:37:15.462Z,3.90
2019-03-25T00:39:46.922Z,4.20
2019-03-25T00:42:18.395Z,3.60
2019-03-25T00:44:49.872Z,3.67
2019-03-25T00:47:21.344Z,3.87
2019-03-25T00:49:52.805Z,3.97
2019-03-25T00:52:24.314Z,3.87
2019-03-25T00:54:55.823Z,4.43
2019-03-25T00:57:27.276Z,4.10
2019-03-25T00:59:58.756Z,4.40
2019-03-25T01:02:30.264Z,4.50
2019-03-25T01:05:01.732Z,4.10
2019-03-25T01:07:33.208Z,4.73
2019-03-25T01:10:05.150Z,4.57
2019-03-25T01:12:36.603Z,4.40
2019-03-25T01:15:08.759Z,3.70
2019-03-25T01:17:40.315Z,4.50
2019-03-25T01:20:12.533Z,4.10
2019-03-25T01:22:44.037Z,3.67
2019-03-25T01:25:15.612Z,3.90
2019-03-25T01:27:47.079Z,3.77
2019-03-25T01:30:18.723Z,4.50
2019-03-25T01:32:50.150Z,4.50
2019-03-25T01:35:21.620Z,5.47
2019-03-25T01:37:53.091Z,5.77
2019-03-25T01:40:24.565Z,4.40
2019-03-25T01:42:56.007Z,3.03
2019-03-25T01:45:27.491Z,3.90
2019-03-25T01:47:58.939Z,3.80
2019-03-25T01:50:30.434Z,4.40
2019-03-25T01:53:01.901Z,3.60
2019-03-25T01:55:33.369Z,4.03
2019-03-25T01:58:04.914Z,4.37
2019-03-25T02:00:36.459Z,3.70
2019-03-25T02:03:08.601Z,3.77
2019-03-25T02:05:40.068Z,4.03
2019-03-25T02:08:12.636Z,3.57
2019-03-25T02:10:44.079Z,3.67
2019-03-25T02:13:15.590Z,4.00
2019-03-25T02:15:47.072Z,3.80
2019-03-25T02:18:18.687Z,3.73
2019-03-25T02:20:49.272Z,4.00
2019-03-25T02:23:19.837Z,3.63
2019-03-25T02:25:50.426Z,3.20
2019-03-25T02:28:21.043Z,3.40
2019-03-25T02:30:51.816Z,4.47
2019-03-25T02:33:23.347Z,3.47
2019-03-25T02:35:54.809Z,3.50
2019-03-25T02:38:26.329Z,3.90
2019-03-25T02:40:57.804Z,4.03
2019-03-25T02:43:28.430Z,4.10
2019-03-25T02:45:59.079Z,3.60
2019-03-25T02:48:29.712Z,3.70
2019-03-25T02:51:00.322Z,3.30
2019-03-25T02:53:30.934Z,4.90
2019-03-25T02:56:01.521Z,3.73
2019-03-25T02:58:32.134Z,3.77
2019-03-25T03:01:02.890Z,3.27
2019-03-25T03:03:33.709Z,4.53
2019-03-25T03:06:04.524Z,3.30
2019-03-25T03:08:35.092Z,3.57
2019-03-25T03:11:05.701Z,3.57
2019-03-25T03:13:36.321Z,4.00
2019-03-25T03:16:06.899Z,3.33
2019-03-25T03:18:37.567Z,4.30
2019-03-25T03:21:08.169Z,4.07
2019-03-25T03:23:39.165Z,3.43
2019-03-25T03:26:09.988Z,3.90
2019-03-25T03:28:40.671Z,4.53
2019-03-25T03:31:11.253Z,3.87
2019-03-25T03:33:42.913Z,3.90
2019-03-25T03:36:13.477Z,3.87
2019-03-25T03:38:44.071Z,4.20
2019-03-25T03:41:14.837Z,4.50
2019-03-25T03:43:45.453Z,4.67
2019-03-25T03:46:16.025Z,4.23
2019-03-25T03:48:46.621Z,4.60
2019-03-25T03:51:17.318Z,3.83
2019-03-25T03:53:48.034Z,4.47
2019-03-25T03:56:19.096Z,3.83
2019-03-25T03:58:50.275Z,3.70
2019-03-25T04:01:20.880Z,4.27
2019-03-25T04:03:51.463Z,4.53
2019-03-25T04:06:22.068Z,4.37
2019-03-25T04:08:52.637Z,5.27
2019-03-25T04:11:23.251Z,4.60
2019-03-25T04:13:53.882Z,3.47
2019-03-25T04:16:24.507Z,4.37
2019-03-25T04:18:55.142Z,4.10
2019-03-25T04:21:25.777Z,4.07
2019-03-25T04:23:56.535Z,5.30
2019-03-25T04:26:29.320Z,5.00
2019-03-25T04:28:59.580Z,4.80
2019-03-25T04:31:30.253Z,3.97
2019-03-25T04:34:01.154Z,4.80
2019-03-25T04:36:31.773Z,4.07
2019-03-25T04:39:03.751Z,4.23
2019-03-25T04:41:34.424Z,5.07
2019-03-25T04:44:05.061Z,5.00
2019-03-25T04:46:35.735Z,5.00
2019-03-25T04:49:06.372Z,4.50
2019-03-25T04:51:37.159Z,5.13
2019-03-25T04:54:07.770Z,4.60
2019-03-25T04:56:39.920Z,4.30
2019-03-25T04:59:11.666Z,4.57
2019-03-25T05:01:42.648Z,4.83
2019-03-25T05:04:13.312Z,4.90
2019-03-25T05:06:44.048Z,4.23
2019-03-25T05:09:14.654Z,4.30
2019-03-25T05:11:45.249Z,4.07
2019-03-25T05:14:16.203Z,4.37
2019-03-25T05:16:46.886Z,4.97
2019-03-25T05:19:17.642Z,4.67
2019-03-25T05:21:48.327Z,4.77
2019-03-25T05:24:21.721Z,4.40
2019-03-25T05:27:00.430Z,3.97
2019-03-25T05:29:33.569Z,3.97
2019-03-25T05:32:05.543Z,5.03
2019-03-25T05:34:36.368Z,4.47
2019-03-25T05:37:07.008Z,4.80
2019-03-25T05:39:38.457Z,4.67
2019-03-25T05:42:09.015Z,4.47
2019-03-25T05:44:39.662Z,4.50
2019-03-25T05:47:10.561Z,4.97
2019-03-25T05:49:41.134Z,5.23
2019-03-25T05:52:11.730Z,4.70
2019-03-25T05:54:43.217Z,4.80
2019-03-25T05:57:13.872Z,5.07
2019-03-25T05:59:44.515Z,4.53
2019-03-25T06:02:15.917Z,5.30
2019-03-25T06:04:46.522Z,5.07
2019-03-25T06:07:17.109Z,5.10
2019-03-25T06:09:47.704Z,5.27
2019-03-25T06:12:18.310Z,4.87
2019-03-25T06:14:49.461Z,4.90
2019-03-25T06:17:20.089Z,5.27
2019-03-25T06:19:50.688Z,5.03
2019-03-25T06:22:21.282Z,4.80
2019-03-25T06:24:51.937Z,5.03
2019-03-25T06:27:22.583Z,6.10
2019-03-25T06:29:53.242Z,5.10
2019-03-25T06:32:23.877Z,5.73
2019-03-25T06:34:57.482Z,5.27
2019-03-25T06:37:28.157Z,5.77
2019-03-25T06:39:59.693Z,6.00
2019-03-25T06:42:31.167Z,5.63
2019-03-25T06:45:02.710Z,5.73
2019-03-25T06:47:34.188Z,5.60
2019-03-25T06:50:06.942Z,6.97
2019-03-25T06:52:38.490Z,5.33
2019-03-25T06:55:10.777Z,5.97
2019-03-25T06:57:43.225Z,6.17
2019-03-25T07:00:15.544Z,6.60
2019-03-25T07:02:47.053Z,5.97
2019-03-25T07:05:18.819Z,5.53
2019-03-25T07:07:50.343Z,6.10
2019-03-25T07:10:35.077Z,6.60
2019-03-25T07:13:07.802Z,6.70
2019-03-25T07:15:39.784Z,5.87
2019-03-25T07:18:11.611Z,6.70
2019-03-25T07:20:43.174Z,5.40
2019-03-25T07:23:15.458Z,6.43
2019-03-25T07:25:46.944Z,6.33
2019-03-25T07:28:18.379Z,5.93
2019-03-25T07:30:49.922Z,6.80
2019-03-25T07:33:21.396Z,6.67
2019-03-25T07:35:52.867Z,6.60
2019-03-25T07:38:24.348Z,7.10
2019-03-25T07:40:55.823Z,6.73
2019-03-25T07:43:27.357Z,6.20
2019-03-25T07:45:58.822Z,7.03
2019-03-25T07:48:30.374Z,5.40
2019-03-25T07:51:01.844Z,6.17
2019-03-25T07:53:33.361Z,6.40
2019-03-25T07:56:05.069Z,6.27
2019-03-25T07:58:37.051Z,5.90
2019-03-25T08:01:08.836Z,5.90
2019-03-25T08:03:41.375Z,5.53
2019-03-25T08:06:13.389Z,6.50
2019-03-25T08:08:44.895Z,6.60
2019-03-25T08:11:16.779Z,5.87
2019-03-25T08:13:48.275Z,5.30
2019-03-25T08:16:19.817Z,4.77
2019-03-25T08:18:51.303Z,5.27
2019-03-25T08:21:24.981Z,4.23
2019-03-25T08:23:55.971Z,4.00
2019-03-25T08:26:27.490Z,4.43
2019-03-25T08:28:58.974Z,4.40
2019-03-25T08:31:30.476Z,4.53
2019-03-25T08:34:01.968Z,4.43
2019-03-25T08:36:33.450Z,4.77
2019-03-25T08:39:05.830Z,5.00
2019-03-25T08:41:37.691Z,5.37
2019-03-25T08:44:09.183Z,5.00
2019-03-25T08:46:40.717Z,5.63
2019-03-25T08:49:12.373Z,5.07
2019-03-25T08:51:44.350Z,5.73
2019-03-25T08:54:16.543Z,5.00
2019-03-25T08:56:48.023Z,4.93
2019-03-25T08:59:20.142Z,4.80
2019-03-25T09:01:51.652Z,5.10
2019-03-25T09:04:23.141Z,4.80
2019-03-25T09:06:54.650Z,3.83
2019-03-25T09:09:26.158Z,4.07
2019-03-25T09:11:57.579Z,3.83
2019-03-25T09:14:29.100Z,3.97
2019-03-25T09:17:00.786Z,3.57
2019-03-25T09:19:32.614Z,3.60
2019-03-25T09:22:04.087Z,3.50
2019-03-25T09:24:35.562Z,3.07
2019-03-25T09:27:07.057Z,3.50
2019-03-25T09:29:38.577Z,4.17
2019-03-25T09:32:10.608Z,3.70
2019-03-25T09:34:42.139Z,4.30
2019-03-25T09:37:13.917Z,4.97
2019-03-25T09:39:45.577Z,4.17
2019-03-25T09:42:17.478Z,4.37
2019-03-25T09:44:48.919Z,4.30
2019-03-25T09:47:20.506Z,4.47
2019-03-25T09:49:52.025Z,4.73
2019-03-25T09:52:23.871Z,5.53
2019-03-25T09:54:55.346Z,4.77
2019-03-25T09:57:26.858Z,5.43
2019-03-25T09:59:58.304Z,5.83
2019-03-25T10:02:29.834Z,5.63
2019-03-25T10:05:03.659Z,5.83
2019-03-25T10:07:35.156Z,5.30
2019-03-25T10:10:08.194Z,5.43
2019-03-25T10:12:40.775Z,4.90
2019-03-25T10:15:12.585Z,5.23
2019-03-25T10:17:44.085Z,5.07
2019-03-25T10:20:18.556Z,5.23
2019-03-25T10:22:50.086Z,5.63
2019-03-25T10:25:21.644Z,5.23
2019-03-25T10:27:53.147Z,5.50
2019-03-25T10:30:24.925Z,6.00
2019-03-25T10:32:56.465Z,5.70
2019-03-25T10:35:27.957Z,5.60
2019-03-25T10:37:59.475Z,5.70
2019-03-25T10:40:30.976Z,5.67
2019-03-25T10:43:02.459Z,5.40
2019-03-25T10:45:34.002Z,5.50
2019-03-25T10:48:05.584Z,5.47
2019-03-25T10:50:37.099Z,4.87
2019-03-25T10:53:08.585Z,4.53
2019-03-25T10:55:40.224Z,5.43
2019-03-25T10:58:11.693Z,5.30
2019-03-25T11:00:44.466Z,4.60
2019-03-25T11:03:16.042Z,4.20
2019-03-25T11:05:47.655Z,4.70
2019-03-25T11:08:19.942Z,4.00
2019-03-25T11:10:51.458Z,4.40
2019-03-25T11:13:26.053Z,4.50
2019-03-25T11:15:57.630Z,3.73
2019-03-25T11:18:29.253Z,3.63
2019-03-25T11:21:00.762Z,4.40
2019-03-25T11:23:32.289Z,4.20
2019-03-25T11:26:03.816Z,3.90
2019-03-25T11:28:35.349Z,3.73
2019-03-25T11:31:06.977Z,3.37
2019-03-25T11:33:38.830Z,2.93
2019-03-25T11:36:11.547Z,3.13
2019-03-25T11:38:43.130Z,3.33
2019-03-25T11:41:15.467Z,2.97
2019-03-25T11:43:46.928Z,2.73
2019-03-25T11:46:18.470Z,2.87
2019-03-25T11:48:50.019Z,2.53
2019-03-25T11:51:21.945Z,2.67
2019-03-25T11:53:53.512Z,2.27
2019-03-25T11:56:25.755Z,2.30
2019-03-25T11:58:57.283Z,2.00
2019-03-25T12:01:29.905Z,2.23
2019-03-25T12:04:01.514Z,2.10
2019-03-25T12:06:32.980Z,1.80
2019-03-25T12:09:06.639Z,2.23
2019-03-25T12:11:38.414Z,1.93
2019-03-25T12:14:09.919Z,2.10
2019-03-25T12:16:42.192Z,2.50
2019-03-25T12:19:13.750Z,2.03
2019-03-25T12:21:46.352Z,1.80
2019-03-25T12:24:17.899Z,1.73
2019-03-25T12:26:49.367Z,2.13
2019-03-25T12:29:29.668Z,1.80
2019-03-25T12:31:54.224Z,1.63
2019-03-25T12:34:26.626Z,1.67
2019-03-25T12:36:58.245Z,1.57
2019-03-25T12:39:29.780Z,1.90
2019-03-25T12:42:01.284Z,1.70
2019-03-25T12:44:32.816Z,2.40
2019-03-25T12:47:04.547Z,2.10
2019-03-25T12:49:36.199Z,2.17
2019-03-25T12:52:07.676Z,2.37
2019-03-25T12:54:39.481Z,1.60
2019-03-25T12:57:11.022Z,2.13
2019-03-25T12:59:42.469Z,1.47
2019-03-25T13:02:14.348Z,1.73
2019-03-25T13:04:45.811Z,1.80
2019-03-25T13:07:17.321Z,1.73
2019-03-25T13:09:48.837Z,1.63
2019-03-25T13:12:20.290Z,1.73
2019-03-25T13:14:51.811Z,1.57
2019-03-25T13:17:22.374Z,1.30
2019-03-25T13:19:53.855Z,1.60
2019-03-25T13:22:25.612Z,1.67
2019-03-25T13:24:56.153Z,1.53
2019-03-25T13:27:27.653Z,1.60
2019-03-25T13:29:58.428Z,1.53
2019-03-25T13:32:29.146Z,2.50
2019-03-25T13:34:59.706Z,1.97
2019-03-25T13:37:30.474Z,1.50
2019-03-25T13:40:01.103Z,1.33
2019-03-25T13:42:31.722Z,1.40
2019-03-25T13:45:02.449Z,1.90
2019-03-25T13:47:33.032Z,1.63
2019-03-25T13:50:03.752Z,1.30
2019-03-25T13:52:35.343Z,1.40
2019-03-25T13:55:06.362Z,1.73
2019-03-25T13:57:37.443Z,1.80
2019-03-25T14:00:08.555Z,1.60
2019-03-25T14:02:39.260Z,1.80
2019-03-25T14:05:10.029Z,1.43
2019-03-25T14:07:40.588Z,1.77
2019-03-25T14:10:12.296Z,2.17
2019-03-25T14:12:43.459Z,2.17
2019-03-25T14:15:14.964Z,2.37
2019-03-25T14:17:45.613Z,2.20
2019-03-25T14:20:16.573Z,2.10
2019-03-25T14:22:47.209Z,2.33
2019-03-25T14:25:17.798Z,1.90
2019-03-25T14:27:49.516Z,1.73
2019-03-25T14:30:20.451Z,1.90
2019-03-25T14:32:51.082Z,2.10
2019-03-25T14:35:29.743Z,2.03
2019-03-25T14:38:01.257Z,1.93
2019-03-25T14:40:33.153Z,2.47
2019-03-25T14:43:04.712Z,2.83
2019-03-25T14:45:36.173Z,2.23
2019-03-25T14:48:07.674Z,1.60
2019-03-25T14:50:39.113Z,1.80
2019-03-25T14:53:10.600Z,1.80
2019-03-25T14:55:42.119Z,1.60
2019-03-25T14:58:13.641Z,1.63
2019-03-25T15:00:45.231Z,2.10
2019-03-25T15:03:16.661Z,2.00
2019-03-25T15:05:48.213Z,1.40
2019-03-25T15:08:19.882Z,1.87
2019-03-25T15:10:53.773Z,1.87
2019-03-25T15:13:24.757Z,1.40
2019-03-25T15:15:56.254Z,1.70
2019-03-25T15:18:27.693Z,1.83
2019-03-25T15:20:59.180Z,1.53
2019-03-25T15:23:31.437Z,1.40
2019-03-25T15:26:02.892Z,1.13
2019-03-25T15:28:34.925Z,1.10
2019-03-25T15:31:06.578Z,1.40
2019-03-25T15:33:38.878Z,1.20
2019-03-25T15:36:10.607Z,1.00
2019-03-25T15:38:42.231Z,1.30
2019-03-25T15:41:14.771Z,1.20
2019-03-25T15:43:46.965Z,1.33
2019-03-25T15:46:18.421Z,1.77
2019-03-25T15:48:50.168Z,1.67
2019-03-25T15:51:21.727Z,1.63
2019-03-25T15:53:53.199Z,1.47
2019-03-25T15:56:24.650Z,1.80
2019-03-25T15:58:56.217Z,1.60
2019-03-25T16:01:27.672Z,2.10
2019-03-25T16:03:59.132Z,1.67
2019-03-25T16:06:30.606Z,1.90
2019-03-25T16:09:02.100Z,2.00
2019-03-25T16:11:33.919Z,1.97
2019-03-25T16:14:05.397Z,1.90
2019-03-25T16:16:37.661Z,1.97
2019-03-25T16:19:09.161Z,2.10
2019-03-25T16:21:42.729Z,1.87
2019-03-25T16:24:14.298Z,1.80
2019-03-25T16:26:45.926Z,1.77
2019-03-25T16:29:18.232Z,2.40
2019-03-25T16:31:49.690Z,2.00
2019-03-25T16:34:22.662Z,1.87
2019-03-25T16:36:54.452Z,1.60
2019-03-25T16:39:25.899Z,1.67
2019-03-25T16:41:57.479Z,2.10
2019-03-25T16:44:28.928Z,2.20
2019-03-25T16:47:00.571Z,5.17
2019-03-25T16:49:32.108Z,6.20
2019-03-25T16:52:03.598Z,8.17
2019-03-25T16:54:36.044Z,6.40
2019-03-25T16:57:07.597Z,3.10
2019-03-25T16:59:40.724Z,16.93
2019-03-25T17:02:13.544Z,17.73
2019-03-25T17:04:45.255Z,9.60
2019-03-25T17:07:26.917Z,9.23
2019-03-25T17:10:11.178Z,7.23
2019-03-25T17:12:46.177Z,4.00
2019-03-25T17:15:28.526Z,2.37
2019-03-25T17:18:00.216Z,1.80
2019-03-25T17:20:32.958Z,1.87
2019-03-25T17:23:06.082Z,1.47
2019-03-25T17:25:39.415Z,2.30
2019-03-25T17:28:13.620Z,5.60
2019-03-25T17:30:47.672Z,3.63
2019-03-25T17:33:20.040Z,3.27
2019-03-25T17:35:51.541Z,6.63
2019-03-25T17:38:23.161Z,3.83
2019-03-25T17:40:54.698Z,4.73
2019-03-25T17:43:26.595Z,7.67
2019-03-25T17:45:58.147Z,8.20
2019-03-25T17:48:31.308Z,5.40
2019-03-25T17:51:03.973Z,7.10
2019-03-25T17:53:40.558Z,8.30
2019-03-25T17:56:12.506Z,8.57
2019-03-25T17:58:48.020Z,10.97
2019-03-25T18:01:32.189Z,11.67
2019-03-25T18:03:59.878Z,8.83
2019-03-25T18:06:31.608Z,11.77
2019-03-25T18:09:04.570Z,17.33
2019-03-25T18:11:36.075Z,13.20
2019-03-25T18:14:07.869Z,15.30
2019-03-25T18:16:39.375Z,12.53
2019-03-25T18:19:10.838Z,7.03
2019-03-25T18:21:43.867Z,12.40
2019-03-25T18:24:15.351Z,11.43
2019-03-25T18:26:47.752Z,9.50
2019-03-25T18:29:19.714Z,4.80
2019-03-25T18:31:51.508Z,2.57
2019-03-25T18:34:23.025Z,3.83
2019-03-25T18:36:54.724Z,3.00
2019-03-25T18:39:26.277Z,2.47
2019-03-25T18:41:59.014Z,2.00
2019-03-25T18:44:30.539Z,2.73
2019-03-25T18:47:05.340Z,2.87
2019-03-25T18:49:37.411Z,5.77
2019-03-25T18:52:09.203Z,8.53
2019-03-25T18:54:41.943Z,5.73
2019-03-25T18:57:14.502Z,4.03
2019-03-25T18:59:46.277Z,3.10
2019-03-25T19:02:19.243Z,3.10
2019-03-25T19:04:51.226Z,2.00
2019-03-25T19:07:25.113Z,2.33
2019-03-25T19:09:56.850Z,3.03
2019-03-25T19:12:28.436Z,2.57
2019-03-25T19:15:03.066Z,2.73
2019-03-25T19:17:37.613Z,2.80
2019-03-25T19:20:10.162Z,2.30
2019-03-25T19:22:43.837Z,1.93
2019-03-25T19:25:15.475Z,1.97
2019-03-25T19:27:50.099Z,2.30
2019-03-25T19:30:24.037Z,2.77
2019-03-25T19:32:55.793Z,2.50
2019-03-25T19:35:30.104Z,2.90
2019-03-25T19:38:03.095Z,2.37
2019-03-25T19:40:35.449Z,2.40
2019-03-25T19:43:07.347Z,3.83
2019-03-25T19:45:39.860Z,3.30
2019-03-25T19:48:11.390Z,2.80
2019-03-25T19:50:42.963Z,2.80
2019-03-25T19:53:19.283Z,2.47
2019-03-25T19:55:49.547Z,2.20
2019-03-25T19:58:21.138Z,1.83
2019-03-25T20:00:53.036Z,1.90
2019-03-25T20:03:24.630Z,1.83
2019-03-25T20:05:56.435Z,2.57
2019-03-25T20:08:28.168Z,2.80
2019-03-25T20:11:00.640Z,2.80
2019-03-25T20:13:32.164Z,2.43
2019-03-25T20:16:05.574Z,2.33
2019-03-25T20:18:37.441Z,2.47
2019-03-25T20:21:09.343Z,2.37
2019-03-25T20:23:40.949Z,2.27
2019-03-25T20:26:12.658Z,2.50
2019-03-25T20:28:44.416Z,2.57
2019-03-25T20:31:17.104Z,3.43
2019-03-25T20:33:49.422Z,2.90
2019-03-25T20:36:20.940Z,4.10
2019-03-25T20:39:43.835Z,3.90
2019-03-25T20:42:15.325Z,5.83
2019-03-25T20:44:46.840Z,5.27
2019-03-25T20:47:19.294Z,5.03
2019-03-25T20:49:50.861Z,4.87
2019-03-25T20:52:24.453Z,5.13
2019-03-25T20:54:56.289Z,5.00
2019-03-25T20:57:27.832Z,4.67
2019-03-25T20:59:59.388Z,4.03
2019-03-25T21:02:45.049Z,3.80
2019-03-25T21:05:15.744Z,4.10
2019-03-25T21:07:58.654Z,3.60
2019-03-25T21:10:37.698Z,4.13
2019-03-25T21:13:20.497Z,3.50
2019-03-25T21:15:52.188Z,3.70
2019-03-25T21:18:24.133Z,3.57
2019-03-25T21:20:55.971Z,4.10
2019-03-25T21:23:33.669Z,4.87
2019-03-25T21:26:11.175Z,5.17
2019-03-25T21:28:49.529Z,5.83
2019-03-25T21:31:27.620Z,6.47
2019-03-25T21:34:00.295Z,6.23
2019-03-25T21:36:33.566Z,6.73
2019-03-25T21:39:06.560Z,7.03
2019-03-25T21:41:38.743Z,5.33
2019-03-25T21:44:10.332Z,3.87
2019-03-25T21:46:42.788Z,3.50
2019-03-25T21:49:18.810Z,3.27
2019-03-25T21:51:55.000Z,3.43
2019-03-25T21:54:26.851Z,3.20
2019-03-25T21:56:59.128Z,3.70
2019-03-25T21:59:30.580Z,3.80
2019-03-25T22:02:02.078Z,3.40
2019-03-25T22:04:33.546Z,3.23
2019-03-25T22:07:05.043Z,3.30
2019-03-25T22:09:36.511Z,3.33
2019-03-25T22:12:08.017Z,4.10
2019-03-25T22:14:39.462Z,4.20
2019-03-25T22:17:10.972Z,4.60
2019-03-25T22:19:42.481Z,4.83
2019-03-25T22:22:13.981Z,4.97
2019-03-25T22:24:45.808Z,5.37
2019-03-25T22:27:17.300Z,5.13
2019-03-25T22:29:48.746Z,5.20
2019-03-25T22:32:21.042Z,5.10
2019-03-25T22:34:52.561Z,5.73
2019-03-25T22:37:24.028Z,5.77
2019-03-25T22:39:55.623Z,5.20
2019-03-25T22:42:27.067Z,5.80
2019-03-25T22:44:58.909Z,5.63
2019-03-25T22:47:30.386Z,6.07
2019-03-25T22:50:02.215Z,6.50
2019-03-25T22:52:33.665Z,6.70
2019-03-25T22:55:05.892Z,5.90
2019-03-25T22:57:38.345Z,6.33
2019-03-25T23:00:10.485Z,5.50
2019-03-25T23:02:41.925Z,6.07
2019-03-25T23:05:13.687Z,6.10
2019-03-25T23:07:45.126Z,6.10
2019-03-25T23:10:16.631Z,5.73
2019-03-25T23:12:48.209Z,6.50
2019-03-25T23:15:19.684Z,6.03
2019-03-25T23:17:51.190Z,6.00
2019-03-25T23:20:22.702Z,5.53
2019-03-25T23:22:54.122Z,6.00
2019-03-25T23:25:25.559Z,5.77
2019-03-25T23:27:56.959Z,5.70
2019-03-25T23:30:28.376Z,5.43
2019-03-25T23:33:00.369Z,5.63
2019-03-25T23:35:31.929Z,4.93
2019-03-25T23:38:04.001Z,5.47
2019-03-25T23:40:35.788Z,5.57
2019-03-25T23:43:07.508Z,5.07
2019-03-25T23:45:40.439Z,5.23
2019-03-25T23:48:11.963Z,5.07
2019-03-25T23:50:43.427Z,4.90
2019-03-25T23:53:15.194Z,5.10
2019-03-25T23:55:46.645Z,5.17
2019-03-25T23:58:17.279Z,5.33
